createdAt,value
2022-09-28T00:00:05.305Z,75.13
2022-09-28T00:02:42.294Z,75.08
2022-09-28T00:05:15.485Z,75.42
2022-09-28T00:07:45.237Z,75.20
2022-09-28T00:10:15.554Z,75.41
2022-09-28T00:12:45.912Z,75.11
2022-09-28T00:15:15.747Z,75.27
2022-09-28T00:17:47.126Z,74.93
2022-09-28T00:20:19.554Z,74.99
2022-09-28T00:22:49.384Z,75.04
2022-09-28T00:25:19.188Z,75.35
2022-09-28T00:27:52.927Z,75.56
2022-09-28T00:30:22.834Z,75.38
2022-09-28T00:32:52.836Z,75.09
2022-09-28T00:35:22.748Z,74.90
2022-09-28T00:37:53.091Z,75.22
2022-09-28T00:40:23.744Z,75.33
2022-09-28T00:42:54.042Z,75.58
2022-09-28T00:45:26.524Z,75.59
2022-09-28T00:48:01.430Z,75.40
2022-09-28T00:50:36.167Z,75.53
2022-09-28T00:53:15.826Z,75.63
2022-09-28T00:55:49.257Z,75.25
2022-09-28T00:58:24.272Z,75.55
2022-09-28T01:00:56.258Z,75.29
2022-09-28T01:03:28.519Z,75.03
2022-09-28T01:06:00.458Z,75.16
2022-09-28T01:08:32.271Z,74.84
2022-09-28T01:11:02.481Z,75.09
2022-09-28T01:13:34.313Z,75.10
2022-09-28T01:16:31.481Z,74.69
2022-09-28T01:19:28.485Z,74.95
2022-09-28T01:22:08.290Z,75.49
2022-09-28T01:24:41.829Z,75.26
2022-09-28T01:27:15.823Z,74.97
2022-09-28T01:29:50.296Z,75.08
2022-09-28T01:32:20.076Z,75.18
2022-09-28T01:35:05.479Z,75.42
2022-09-28T01:37:47.600Z,75.80
2022-09-28T01:40:18.334Z,75.89
2022-09-28T01:42:51.948Z,75.96
2022-09-28T01:45:33.418Z,76.11
2022-09-28T01:48:05.288Z,76.44
2022-09-28T01:50:38.607Z,76.44
2022-09-28T01:53:14.410Z,76.52
2022-09-28T01:55:48.265Z,76.20
2022-09-28T01:58:35.985Z,76.35
2022-09-28T02:01:08.190Z,75.96
2022-09-28T02:03:42.096Z,76.51
2022-09-28T02:06:15.945Z,76.26
2022-09-28T02:08:53.345Z,76.56
2022-09-28T02:11:29.166Z,76.27
2022-09-28T02:14:04.705Z,75.92
2022-09-28T02:16:38.874Z,76.14
2022-09-28T02:19:11.165Z,76.25
2022-09-28T02:21:41.133Z,76.38
2022-09-28T02:24:21.520Z,76.69
2022-09-28T02:26:54.461Z,76.11
2022-09-28T02:29:24.146Z,76.60
2022-09-28T02:31:55.000Z,76.36
2022-09-28T02:34:25.057Z,76.43
2022-09-28T02:36:54.997Z,76.18
2022-09-28T02:39:24.932Z,76.00
2022-09-28T02:41:58.393Z,75.45
2022-09-28T02:44:50.854Z,75.82
2022-09-28T02:47:30.949Z,75.81
2022-09-28T02:50:07.412Z,75.30
2022-09-28T02:52:55.919Z,75.74
2022-09-28T02:55:44.653Z,75.47
2022-09-28T02:58:18.283Z,75.83
2022-09-28T03:00:53.976Z,75.28
2022-09-28T03:03:27.867Z,75.48
2022-09-28T03:06:02.457Z,75.23
2022-09-28T03:08:45.468Z,75.90
2022-09-28T03:11:26.028Z,76.31
2022-09-28T03:13:56.033Z,75.36
2022-09-28T03:16:34.222Z,76.01
2022-09-28T03:19:04.944Z,75.57
2022-09-28T03:21:35.450Z,75.58
2022-09-28T03:24:08.099Z,75.82
2022-09-28T03:26:37.943Z,75.42
2022-09-28T03:29:08.971Z,74.83
2022-09-28T03:31:40.344Z,74.74
2022-09-28T03:34:10.659Z,74.80
2022-09-28T03:36:40.594Z,74.70
2022-09-28T03:39:10.728Z,74.25
2022-09-28T03:41:41.713Z,74.59
2022-09-28T03:44:11.631Z,74.87
2022-09-28T03:46:41.272Z,74.29
2022-09-28T03:49:13.165Z,74.65
2022-09-28T03:51:42.991Z,74.76
2022-09-28T03:54:12.634Z,74.47
2022-09-28T03:56:42.832Z,74.78
2022-09-28T03:59:12.570Z,74.94
2022-09-28T04:01:42.939Z,74.60
2022-09-28T04:04:16.922Z,74.23
2022-09-28T04:06:48.251Z,74.16
2022-09-28T04:09:19.327Z,74.40
2022-09-28T04:12:03.269Z,74.53
2022-09-28T04:14:35.475Z,74.18
2022-09-28T04:17:08.348Z,74.17
2022-09-28T04:19:38.978Z,74.11
2022-09-28T04:22:31.807Z,73.94
2022-09-28T04:25:02.211Z,73.61
2022-09-28T04:27:51.133Z,73.80
2022-09-28T04:30:21.532Z,73.99
2022-09-28T04:32:51.767Z,74.13
2022-09-28T04:35:21.581Z,74.18
2022-09-28T04:37:51.226Z,74.28
2022-09-28T04:40:21.052Z,74.05
2022-09-28T04:42:58.443Z,73.92
2022-09-28T04:45:31.430Z,74.23
2022-09-28T04:48:11.271Z,73.97
2022-09-28T04:51:13.161Z,73.92
2022-09-28T04:53:42.897Z,73.89
2022-09-28T04:56:14.598Z,73.48
2022-09-28T04:58:52.451Z,73.01
2022-09-28T05:01:26.139Z,73.25
2022-09-28T05:04:01.997Z,73.49
2022-09-28T05:07:10.664Z,73.22
2022-09-28T05:09:41.302Z,73.37
2022-09-28T05:12:11.916Z,73.52
2022-09-28T05:14:42.341Z,73.58
2022-09-28T05:17:13.535Z,73.52
2022-09-28T05:20:05.394Z,73.38
2022-09-28T05:22:38.409Z,73.05
2022-09-28T05:25:10.505Z,73.36
2022-09-28T05:28:04.548Z,73.33
2022-09-28T05:30:44.386Z,73.18
2022-09-28T05:33:40.361Z,73.23
2022-09-28T05:36:15.801Z,73.14
2022-09-28T05:38:46.320Z,72.85
2022-09-28T05:41:18.075Z,72.80
2022-09-28T05:43:48.203Z,72.92
2022-09-28T05:46:18.548Z,72.91
2022-09-28T05:48:50.457Z,73.06
2022-09-28T05:51:21.437Z,72.72
2022-09-28T05:53:52.448Z,73.00
2022-09-28T05:56:23.121Z,73.10
2022-09-28T05:58:55.253Z,72.74
2022-09-28T06:01:26.953Z,72.67
2022-09-28T06:03:59.850Z,72.91
2022-09-28T06:06:30.128Z,72.82
2022-09-28T06:08:59.822Z,72.75
2022-09-28T06:11:51.119Z,72.79
2022-09-28T06:14:34.420Z,72.65
2022-09-28T06:17:04.191Z,72.71
2022-09-28T06:19:34.344Z,72.96
2022-09-28T06:22:22.775Z,73.01
2022-09-28T06:25:00.675Z,72.95
2022-09-28T06:27:30.551Z,72.84
2022-09-28T06:30:00.193Z,72.99
2022-09-28T06:32:31.991Z,73.00
2022-09-28T06:35:01.914Z,72.88
2022-09-28T06:37:32.145Z,72.86
2022-09-28T06:40:04.076Z,72.86
2022-09-28T06:42:33.982Z,72.78
2022-09-28T06:45:36.359Z,72.81
2022-09-28T06:48:28.243Z,72.85
2022-09-28T06:50:58.962Z,72.76
2022-09-28T06:53:48.710Z,72.74
2022-09-28T06:56:41.732Z,72.57
2022-09-28T06:59:13.220Z,72.55
2022-09-28T07:01:43.219Z,72.42
2022-09-28T07:04:45.258Z,72.21
2022-09-28T07:07:35.813Z,72.26
2022-09-28T07:10:33.005Z,72.47
2022-09-28T07:16:16.427Z,72.20
2022-09-28T07:18:46.318Z,72.53
2022-09-28T07:21:27.464Z,72.36
2022-09-28T07:24:02.695Z,72.44
2022-09-28T07:27:26.798Z,72.48
2022-09-28T07:30:20.326Z,72.48
2022-09-28T07:33:06.277Z,72.18
2022-09-28T07:35:53.053Z,72.35
2022-09-28T07:38:24.910Z,72.42
2022-09-28T07:41:14.090Z,72.46
2022-09-28T07:43:51.954Z,72.52
2022-09-28T07:46:22.865Z,72.27
2022-09-28T07:49:06.972Z,72.38
2022-09-28T07:52:13.189Z,72.14
2022-09-28T07:55:07.033Z,72.12
2022-09-28T07:58:12.293Z,72.15
2022-09-28T08:01:10.128Z,72.05
2022-09-28T08:03:41.347Z,71.99
2022-09-28T08:06:13.380Z,72.14
2022-09-28T08:08:46.797Z,72.12
2022-09-28T08:11:20.017Z,71.86
2022-09-28T08:14:16.295Z,71.83
2022-09-28T08:17:13.640Z,71.85
2022-09-28T08:20:05.511Z,71.76
2022-09-28T08:22:35.282Z,72.10
2022-09-28T08:25:05.512Z,72.01
2022-09-28T08:27:36.660Z,72.04
2022-09-28T08:30:08.395Z,72.03
2022-09-28T08:33:10.269Z,72.19
2022-09-28T08:35:48.196Z,72.20
2022-09-28T08:38:49.691Z,72.42
2022-09-28T08:41:38.745Z,72.48
2022-09-28T08:44:28.237Z,72.29
2022-09-28T08:47:42.697Z,72.08
2022-09-28T08:50:44.463Z,72.29
2022-09-28T08:53:26.095Z,72.64
2022-09-28T08:56:14.608Z,72.39
2022-09-28T08:58:48.022Z,72.14
2022-09-28T09:01:21.717Z,72.49
2022-09-28T09:03:52.195Z,72.47
2022-09-28T09:06:40.726Z,72.40
2022-09-28T09:09:42.049Z,72.57
2022-09-28T09:12:29.491Z,72.67
2022-09-28T09:15:18.298Z,72.63
2022-09-28T09:18:16.638Z,72.73
2022-09-28T09:21:02.407Z,72.93
2022-09-28T09:24:00.876Z,72.77
2022-09-28T09:26:33.692Z,72.95
2022-09-28T09:29:14.373Z,72.98
2022-09-28T09:31:50.075Z,72.94
2022-09-28T09:34:20.891Z,72.94
2022-09-28T09:37:05.837Z,73.03
2022-09-28T09:40:10.504Z,73.21
2022-09-28T09:43:13.877Z,73.14
2022-09-28T09:45:56.144Z,73.17
2022-09-28T09:49:03.768Z,73.11
2022-09-28T09:51:43.460Z,73.23
2022-09-28T09:54:17.499Z,73.12
2022-09-28T09:57:10.901Z,73.32
2022-09-28T09:59:51.476Z,73.29
2022-09-28T10:02:43.921Z,73.39
2022-09-28T10:05:33.770Z,73.31
2022-09-28T10:08:14.660Z,73.40
2022-09-28T10:10:54.234Z,73.27
2022-09-28T10:13:24.790Z,73.25
2022-09-28T10:15:58.143Z,73.19
2022-09-28T10:18:33.830Z,73.45
2022-09-28T10:21:44.000Z,73.63
2022-09-28T10:24:29.498Z,73.36
2022-09-28T10:27:02.115Z,73.49
2022-09-28T10:29:38.249Z,73.81
2022-09-28T10:32:20.365Z,73.74
2022-09-28T10:34:51.128Z,73.88
2022-09-28T10:37:26.296Z,73.73
2022-09-28T10:40:06.464Z,73.51
2022-09-28T10:42:38.886Z,73.77
2022-09-28T10:45:16.662Z,74.05
2022-09-28T10:47:47.689Z,74.11
2022-09-28T10:50:29.957Z,74.23
2022-09-28T10:53:23.837Z,73.79
2022-09-28T10:56:07.853Z,74.16
2022-09-28T10:58:44.100Z,74.14
2022-09-28T11:01:26.187Z,73.91
2022-09-28T11:04:07.197Z,74.05
2022-09-28T11:06:39.789Z,73.91
2022-09-28T11:09:31.114Z,74.13
2022-09-28T11:12:09.482Z,74.35
2022-09-28T11:14:42.650Z,74.29
2022-09-28T11:17:20.747Z,74.23
2022-09-28T11:19:50.555Z,74.25
2022-09-28T11:22:34.017Z,74.25
2022-09-28T11:25:17.542Z,74.20
2022-09-28T11:27:55.216Z,74.41
2022-09-28T13:04:55.549Z,76.59
2022-09-28T13:07:45.043Z,77.58
2022-09-28T13:10:29.459Z,77.55
2022-09-28T13:13:02.297Z,78.33
2022-09-28T13:15:39.259Z,77.16
2022-09-28T13:18:09.654Z,77.60
2022-09-28T13:20:48.422Z,77.78
2022-09-28T13:23:18.726Z,77.36
2022-09-28T13:25:53.111Z,76.81
2022-09-28T13:28:27.220Z,76.54
2022-09-28T13:33:39.330Z,76.02
2022-09-28T13:36:27.962Z,76.22
2022-09-28T13:38:59.188Z,76.36
2022-09-28T13:41:31.453Z,76.35
2022-09-28T13:44:11.015Z,77.08
2022-09-28T13:47:00.069Z,77.55
2022-09-28T13:49:48.208Z,78.05
2022-09-28T13:52:36.340Z,78.54
2022-09-28T13:55:16.864Z,78.88
2022-09-28T13:57:50.762Z,79.22
2022-09-28T14:00:27.084Z,79.62
2022-09-28T14:03:09.175Z,79.88
2022-09-28T14:05:57.583Z,79.81
2022-09-28T14:08:34.483Z,80.05
2022-09-28T14:11:27.329Z,79.82
2022-09-28T14:14:01.610Z,80.31
2022-09-28T14:16:35.694Z,80.40
2022-09-28T14:19:06.138Z,79.73
2022-09-28T14:21:42.357Z,78.88
2022-09-28T14:24:24.345Z,79.15
2022-09-28T14:27:03.421Z,79.20
2022-09-28T14:29:35.102Z,79.18
2022-09-28T14:32:23.723Z,78.92
2022-09-28T14:35:02.273Z,78.70
2022-09-28T14:37:55.373Z,78.41
2022-09-28T14:40:48.712Z,78.42
2022-09-28T14:43:27.084Z,78.20
2022-09-28T14:46:13.579Z,77.90
2022-09-28T14:48:57.325Z,77.66
2022-09-28T14:51:28.160Z,77.88
2022-09-28T14:54:05.248Z,77.87
2022-09-28T14:56:43.513Z,77.94
2022-09-28T14:59:17.333Z,77.76
2022-09-28T15:01:53.955Z,78.24
2022-09-28T15:04:26.456Z,78.26
2022-09-28T15:06:56.785Z,78.21
2022-09-28T15:09:34.174Z,77.68
2022-09-28T15:12:05.684Z,77.80
2022-09-28T15:14:38.316Z,77.22
2022-09-28T15:17:15.687Z,77.37
2022-09-28T15:19:48.905Z,77.53
2022-09-28T15:22:19.698Z,77.23
2022-09-28T15:25:02.419Z,77.08
2022-09-28T15:27:40.190Z,77.11
2022-09-28T15:30:19.922Z,77.28
2022-09-28T15:32:49.839Z,77.90
2022-09-28T15:35:28.291Z,77.66
2022-09-28T15:37:58.650Z,77.31
2022-09-28T15:40:36.389Z,77.73
2022-09-28T15:43:22.879Z,78.27
2022-09-28T15:46:21.633Z,78.49
2022-09-28T15:48:55.429Z,78.59
2022-09-28T15:51:28.342Z,78.24
2022-09-28T15:54:00.758Z,78.66
2022-09-28T15:56:30.832Z,78.64
2022-09-28T15:59:19.119Z,78.64
2022-09-28T16:01:50.274Z,78.60
2022-09-28T16:04:41.329Z,78.99
2022-09-28T16:07:32.435Z,78.60
2022-09-28T16:10:07.406Z,78.98
2022-09-28T16:12:40.427Z,78.80
2022-09-28T16:15:18.932Z,78.78
2022-09-28T16:17:52.755Z,78.82
2022-09-28T16:20:32.272Z,79.03
2022-09-28T16:23:08.016Z,78.97
2022-09-28T16:25:41.377Z,78.99
2022-09-28T16:28:29.539Z,79.15
2022-09-28T16:31:05.453Z,78.99
2022-09-28T16:34:11.841Z,79.35
2022-09-28T16:36:47.892Z,79.31
2022-09-28T16:39:19.042Z,78.99
2022-09-28T16:41:54.839Z,79.34
2022-09-28T16:44:28.836Z,79.23
2022-09-28T16:47:03.274Z,79.39
2022-09-28T16:49:34.849Z,79.20
2022-09-28T16:52:04.768Z,79.25
2022-09-28T16:54:53.285Z,79.34
2022-09-28T16:57:23.792Z,79.10
2022-09-28T16:59:53.646Z,78.98
2022-09-28T17:02:46.269Z,79.04
2022-09-28T17:05:21.968Z,79.17
2022-09-28T17:07:57.129Z,79.01
2022-09-28T17:10:31.147Z,78.82
2022-09-28T17:13:02.295Z,78.69
2022-09-28T17:15:32.830Z,78.95
2022-09-28T17:18:03.421Z,78.68
2022-09-28T17:20:35.051Z,78.65
2022-09-28T17:23:05.371Z,78.79
2022-09-28T17:25:35.805Z,78.45
2022-09-28T17:28:07.392Z,78.45
2022-09-28T17:30:37.714Z,78.70
2022-09-28T17:33:07.627Z,78.38
2022-09-28T17:35:39.841Z,78.83
2022-09-28T17:38:10.180Z,78.73
2022-09-28T17:40:40.117Z,79.07
2022-09-28T17:43:10.097Z,78.90
2022-09-28T17:45:43.393Z,79.08
2022-09-28T17:48:20.362Z,79.29
2022-09-28T17:50:50.958Z,79.05
2022-09-28T17:53:21.301Z,79.12
2022-09-28T17:55:51.238Z,78.91
2022-09-28T17:58:24.584Z,79.02
2022-09-28T18:00:54.374Z,79.23
2022-09-28T18:03:24.988Z,79.03
2022-09-28T18:06:06.274Z,78.92
2022-09-28T18:08:36.319Z,78.99
2022-09-28T18:11:05.896Z,79.14
2022-09-28T18:13:35.577Z,79.24
2022-09-28T18:16:05.549Z,79.20
2022-09-28T18:18:42.060Z,79.21
2022-09-28T18:21:12.498Z,79.07
2022-09-28T18:23:42.760Z,79.21
2022-09-28T18:26:21.688Z,79.12
2022-09-28T18:28:51.412Z,79.05
2022-09-28T18:31:22.087Z,79.28
2022-09-28T18:33:52.109Z,78.94
2022-09-28T18:36:22.205Z,79.13
2022-09-28T18:38:52.871Z,79.34
2022-09-28T18:41:23.234Z,79.32
2022-09-28T18:43:53.204Z,79.18
2022-09-28T18:46:23.408Z,79.30
2022-09-28T18:48:53.748Z,79.29
2022-09-28T18:51:23.571Z,78.98
2022-09-28T18:53:53.818Z,79.31
2022-09-28T18:56:24.380Z,79.64
2022-09-28T18:58:54.741Z,79.39
2022-09-28T19:01:29.976Z,79.48
2022-09-28T19:04:04.076Z,79.58
2022-09-28T19:06:34.000Z,79.65
2022-09-28T19:09:04.659Z,79.79
2022-09-28T19:11:34.659Z,79.72
2022-09-28T19:14:05.701Z,79.64
2022-09-28T19:16:38.204Z,79.53
2022-09-28T19:19:08.726Z,79.82
2022-09-28T19:21:38.461Z,79.78
2022-09-28T19:24:08.087Z,79.50
2022-09-28T19:26:38.370Z,79.27
2022-09-28T19:29:08.285Z,79.64
2022-09-28T19:31:38.122Z,79.63
2022-09-28T19:34:10.488Z,79.65
2022-09-28T19:36:43.322Z,79.32
2022-09-28T19:39:16.272Z,79.30
2022-09-28T19:41:49.993Z,79.06
2022-09-28T19:44:26.624Z,79.36
2022-09-28T19:47:08.842Z,79.34
2022-09-28T19:49:40.070Z,79.47
2022-09-28T19:52:17.470Z,79.21
2022-09-28T19:54:58.659Z,78.76
2022-09-28T19:57:30.470Z,79.34
2022-09-28T20:00:02.814Z,79.19
2022-09-28T20:02:37.278Z,79.46
2022-09-28T20:05:07.271Z,79.47
2022-09-28T20:07:38.778Z,79.74
2022-09-28T20:10:09.637Z,79.54
2022-09-28T20:12:39.950Z,80.07
2022-09-28T20:15:12.242Z,79.87
2022-09-28T20:17:42.685Z,80.13
2022-09-28T20:20:13.086Z,80.16
2022-09-28T20:22:44.472Z,80.11
2022-09-28T20:25:14.989Z,79.85
2022-09-28T20:27:45.003Z,80.03
2022-09-28T20:30:15.156Z,80.42
2022-09-28T20:32:49.376Z,80.14
2022-09-28T20:35:32.360Z,80.49
2022-09-28T20:38:10.030Z,80.20
2022-09-28T20:40:40.061Z,80.31
2022-09-28T20:43:09.851Z,80.38
2022-09-28T20:45:39.596Z,80.34
2022-09-28T20:48:09.216Z,80.20
2022-09-28T20:50:38.829Z,80.53
2022-09-28T20:53:08.357Z,80.35
2022-09-28T20:55:38.056Z,80.29
2022-09-28T20:58:08.116Z,80.27
2022-09-28T21:00:37.953Z,80.26
2022-09-28T21:03:07.606Z,80.19
2022-09-28T21:05:38.601Z,80.19
2022-09-28T21:08:08.936Z,80.27
2022-09-28T21:10:39.472Z,80.25
2022-09-28T21:13:11.318Z,80.01
2022-09-28T21:15:41.378Z,80.09
2022-09-28T21:18:11.497Z,80.14
2022-09-28T21:20:48.441Z,80.27
2022-09-28T21:23:23.945Z,80.28
2022-09-28T21:26:04.802Z,80.27
2022-09-28T21:28:35.067Z,80.37
2022-09-28T21:31:06.815Z,80.10
2022-09-28T21:33:36.648Z,80.34
2022-09-28T21:36:07.773Z,80.46
2022-09-28T21:38:38.189Z,80.55
2022-09-28T21:41:07.878Z,80.69
2022-09-28T21:43:38.010Z,80.41
2022-09-28T21:46:08.584Z,80.53
2022-09-28T21:48:42.203Z,80.19
2022-09-28T21:51:15.524Z,80.41
2022-09-28T21:53:46.142Z,80.35
2022-09-28T21:56:16.472Z,80.41
2022-09-28T21:58:46.836Z,80.43
2022-09-28T22:01:22.267Z,80.51
2022-09-28T22:03:54.257Z,80.39
2022-09-28T22:06:25.582Z,80.21
2022-09-28T22:08:55.879Z,80.36
2022-09-28T22:11:27.038Z,80.62
2022-09-28T22:13:58.850Z,80.55
2022-09-28T22:16:31.120Z,80.59
2022-09-28T22:19:02.062Z,80.56
2022-09-28T22:21:34.704Z,80.84
2022-09-28T22:24:08.258Z,80.62
2022-09-28T22:26:40.070Z,80.43
2022-09-28T22:29:11.960Z,80.67
2022-09-28T22:31:43.590Z,80.59
2022-09-28T22:34:13.316Z,80.42
2022-09-28T22:36:43.311Z,80.59
2022-09-28T22:39:13.147Z,80.46
2022-09-28T22:41:43.975Z,80.39
2022-09-28T22:44:14.238Z,80.55
2022-09-28T22:46:44.929Z,80.67
2022-09-28T22:49:15.689Z,80.79
2022-09-28T22:52:23.210Z,80.65
2022-09-28T22:54:53.959Z,80.18
2022-09-28T23:01:02.848Z,78.87
2022-09-28T23:03:33.729Z,78.66
2022-09-28T23:06:04.983Z,78.95
2022-09-28T23:08:39.163Z,78.97
2022-09-28T23:11:09.818Z,79.26
2022-09-28T23:13:40.561Z,79.36
2022-09-28T23:16:15.940Z,79.76
2022-09-28T23:18:46.083Z,79.78
2022-09-28T23:21:21.411Z,79.73
2022-09-28T23:23:57.854Z,79.63
2022-09-28T23:26:31.303Z,79.63
2022-09-28T23:29:04.038Z,79.67
2022-09-28T23:31:35.667Z,79.65
2022-09-28T23:34:08.745Z,79.72
2022-09-28T23:36:39.545Z,79.57
2022-09-28T23:39:09.959Z,79.79
2022-09-28T23:41:41.976Z,79.65
2022-09-28T23:44:12.243Z,79.74
2022-09-28T23:46:42.872Z,79.38
2022-09-28T23:49:13.761Z,79.60
2022-09-28T23:51:47.409Z,79.62
2022-09-28T23:54:18.683Z,79.54
2022-09-28T23:56:49.554Z,79.67
2022-09-28T23:59:20.408Z,79.72
